createdAt,value
2019-05-16T00:02:08.284Z,97951.31
2019-05-16T00:04:43.283Z,97956.16
2019-05-16T00:07:19.201Z,97959.02
2019-05-16T00:09:54.316Z,97965.22
2019-05-16T00:12:29.190Z,97966.43
2019-05-16T00:15:03.026Z,97976.00
2019-05-16T00:17:38.548Z,97968.92
2019-05-16T00:20:13.364Z,97975.35
2019-05-16T00:22:48.471Z,97970.81
2019-05-16T00:25:22.057Z,97978.77
2019-05-16T00:27:58.420Z,97978.40
2019-05-16T00:30:31.160Z,97982.20
2019-05-16T00:33:04.971Z,97977.96
2019-05-16T00:35:39.023Z,97986.57
2019-05-16T00:38:12.735Z,97993.73
2019-05-16T00:40:48.603Z,97992.07
2019-05-16T00:43:21.333Z,97992.72
2019-05-16T00:45:55.612Z,97988.44
2019-05-16T00:48:29.424Z,98000.62
2019-05-16T00:51:04.853Z,97999.01
2019-05-16T00:53:40.468Z,97989.34
2019-05-16T00:56:14.674Z,97997.51
2019-05-16T00:58:49.998Z,97997.84
2019-05-16T01:01:25.405Z,97985.81
2019-05-16T01:03:59.238Z,97987.33
2019-05-16T01:06:33.303Z,97997.86
2019-05-16T01:09:09.721Z,97994.95
2019-05-16T01:11:45.272Z,97982.88
2019-05-16T01:14:20.586Z,97971.61
2019-05-16T01:16:57.996Z,97979.39
2019-05-16T01:19:31.459Z,97979.57
2019-05-16T01:22:08.352Z,97981.97
2019-05-16T01:24:42.365Z,97987.79
2019-05-16T01:27:18.364Z,97978.05
2019-05-16T01:29:53.646Z,97990.57
2019-05-16T01:32:32.220Z,97985.83
2019-05-16T01:35:04.479Z,97995.98
2019-05-16T01:37:39.844Z,97979.30
2019-05-16T01:40:13.862Z,97988.99
2019-05-16T01:42:49.860Z,97985.86
2019-05-16T01:45:27.674Z,97990.44
2019-05-16T01:48:02.271Z,97982.16
2019-05-16T01:50:47.987Z,97986.31
2019-05-16T01:53:23.192Z,97977.78
2019-05-16T01:55:58.011Z,97978.77
2019-05-16T01:58:34.012Z,97972.02
2019-05-16T02:01:13.180Z,97971.23
2019-05-16T02:03:44.411Z,97978.98
2019-05-16T02:06:18.719Z,97964.05
2019-05-16T02:08:54.311Z,97970.42
2019-05-16T02:11:29.627Z,97975.39
2019-05-16T02:14:05.027Z,97973.42
2019-05-16T02:16:40.210Z,97987.54
2019-05-16T02:19:14.511Z,97975.41
2019-05-16T02:21:53.604Z,97970.03
2019-05-16T02:24:31.630Z,97977.16
2019-05-16T02:27:09.567Z,97989.66
2019-05-16T02:29:44.455Z,97967.40
2019-05-16T02:32:22.231Z,97962.81
2019-05-16T02:35:01.160Z,97959.41
2019-05-16T02:37:35.390Z,97967.77
2019-05-16T02:40:12.136Z,97967.55
2019-05-16T02:42:51.241Z,97977.52
2019-05-16T02:45:32.514Z,97970.20
2019-05-16T02:48:05.879Z,97970.39
2019-05-16T02:50:41.881Z,97963.80
2019-05-16T02:53:17.122Z,97961.58
2019-05-16T02:55:53.669Z,97949.98
2019-05-16T02:58:30.733Z,97951.75
2019-05-16T03:01:06.479Z,97958.86
2019-05-16T03:04:03.238Z,97954.64
2019-05-16T03:06:40.849Z,97952.45
2019-05-16T03:09:15.375Z,97962.55
2019-05-16T03:11:52.253Z,97952.22
2019-05-16T03:14:26.403Z,97949.42
2019-05-16T03:17:03.141Z,97960.07
2019-05-16T03:19:41.737Z,97954.41
2019-05-16T03:22:21.566Z,97948.53
2019-05-16T03:24:52.874Z,97943.73
2019-05-16T03:27:30.358Z,97954.51
2019-05-16T03:30:03.246Z,97943.98
2019-05-16T03:32:43.975Z,97952.20
2019-05-16T03:35:16.432Z,97946.45
2019-05-16T03:38:12.177Z,97943.02
2019-05-16T03:40:51.013Z,97942.50
2019-05-16T03:43:23.575Z,97949.23
2019-05-16T03:45:57.438Z,97932.33
2019-05-16T03:48:32.851Z,97928.31
2019-05-16T03:51:07.148Z,97931.11
2019-05-16T03:53:41.193Z,97910.20
2019-05-16T03:56:15.083Z,97910.20
2019-05-16T03:58:51.025Z,97912.87
2019-05-16T04:01:26.645Z,97912.38
2019-05-16T04:04:01.649Z,97917.61
2019-05-16T04:06:35.141Z,97932.16
2019-05-16T04:09:12.413Z,97922.31
2019-05-16T04:11:46.512Z,97908.30
2019-05-16T04:14:21.476Z,97918.64
2019-05-16T04:16:55.006Z,97908.62
2019-05-16T04:19:32.154Z,97909.98
2019-05-16T04:22:10.447Z,97899.99
2019-05-16T04:24:46.245Z,97893.67
2019-05-16T04:27:21.666Z,97900.71
2019-05-16T04:29:56.302Z,97885.70
2019-05-16T04:32:31.500Z,97892.81
2019-05-16T04:35:06.508Z,97890.38
2019-05-16T04:37:42.447Z,97911.03
2019-05-16T04:40:21.645Z,97897.63
2019-05-16T04:42:54.908Z,97892.61
2019-05-16T04:45:31.726Z,97894.87
2019-05-16T04:48:04.074Z,97903.73
2019-05-16T04:50:41.790Z,97899.09
2019-05-16T04:53:14.813Z,97897.64
2019-05-16T04:55:51.676Z,97877.21
2019-05-16T04:58:24.094Z,97905.11
2019-05-16T05:01:01.542Z,97888.56
2019-05-16T05:03:35.683Z,97891.09
2019-05-16T05:06:11.360Z,97876.61
2019-05-16T05:08:54.478Z,97878.33
2019-05-16T05:11:21.726Z,97883.95
2019-05-16T05:13:57.425Z,97868.00
2019-05-16T05:16:32.391Z,97872.75
2019-05-16T05:19:07.615Z,97858.74
2019-05-16T05:21:41.490Z,97864.88
2019-05-16T05:24:15.339Z,97877.20
2019-05-16T05:26:50.658Z,97857.11
2019-05-16T05:29:24.482Z,97860.16
2019-05-16T05:32:03.539Z,97863.66
2019-05-16T05:34:33.012Z,97843.25
2019-05-16T05:37:12.260Z,97861.27
2019-05-16T05:39:45.023Z,97871.53
2019-05-16T05:42:20.121Z,97847.56
2019-05-16T05:44:56.083Z,97838.60
2019-05-16T05:47:30.828Z,97852.56
2019-05-16T05:50:07.642Z,97867.20
2019-05-16T05:52:45.755Z,97850.69
2019-05-16T05:55:20.004Z,97839.45
2019-05-16T05:57:56.016Z,97835.71
2019-05-16T06:00:32.642Z,97831.33
2019-05-16T06:03:06.103Z,97829.65
2019-05-16T06:05:41.294Z,97836.42
2019-05-16T06:08:16.647Z,97837.03
2019-05-16T06:10:50.761Z,97825.50
2019-05-16T06:13:24.386Z,97830.00
2019-05-16T06:16:00.173Z,97820.10
2019-05-16T06:18:35.490Z,97827.67
2019-05-16T06:21:11.226Z,97813.80
2019-05-16T06:23:45.296Z,97806.33
2019-05-16T06:26:20.632Z,97818.03
2019-05-16T06:28:57.108Z,97805.47
2019-05-16T06:31:31.305Z,97801.95
2019-05-16T06:34:07.962Z,97803.78
2019-05-16T06:36:41.562Z,97795.58
2019-05-16T06:39:15.382Z,97794.35
2019-05-16T06:41:50.956Z,97802.08
2019-05-16T06:44:26.188Z,97800.19
2019-05-16T06:47:15.933Z,97798.20
2019-05-16T06:49:36.403Z,97806.50
2019-05-16T06:52:10.464Z,97792.16
2019-05-16T06:54:45.942Z,97782.74
2019-05-16T06:57:20.605Z,97786.86
2019-05-16T06:59:54.500Z,97794.45
2019-05-16T07:02:33.645Z,97791.25
2019-05-16T07:05:03.100Z,97779.84
2019-05-16T07:07:36.694Z,97791.50
2019-05-16T07:10:12.156Z,97790.30
2019-05-16T07:12:46.032Z,97783.08
2019-05-16T07:15:21.992Z,97795.12
2019-05-16T07:17:59.444Z,97778.17
2019-05-16T07:20:32.552Z,97776.79
2019-05-16T07:23:06.543Z,97777.61
2019-05-16T07:25:41.984Z,97780.25
2019-05-16T07:28:17.328Z,97783.27
2019-05-16T07:30:52.448Z,97767.09
2019-05-16T07:33:27.655Z,97769.42
2019-05-16T07:36:01.486Z,97775.36
2019-05-16T07:38:35.263Z,97774.28
2019-05-16T07:41:13.737Z,97777.88
2019-05-16T07:43:45.350Z,97768.78
2019-05-16T07:46:20.594Z,97765.21
2019-05-16T07:48:54.468Z,97769.95
2019-05-16T07:51:30.820Z,97759.93
2019-05-16T07:54:02.975Z,97762.61
2019-05-16T07:56:40.467Z,97763.66
2019-05-16T07:59:13.292Z,97756.40
2019-05-16T08:01:46.884Z,97763.78
2019-05-16T08:04:20.513Z,97761.25
2019-05-16T08:06:55.389Z,97761.43
2019-05-16T08:09:30.613Z,97750.97
2019-05-16T08:12:26.482Z,97752.61
2019-05-16T08:15:00.719Z,97755.89
2019-05-16T08:17:34.187Z,97744.45
2019-05-16T08:20:11.021Z,97751.19
2019-05-16T08:22:46.114Z,97759.91
2019-05-16T08:25:21.342Z,97754.05
2019-05-16T08:27:56.386Z,97744.50
2019-05-16T08:30:31.918Z,97742.48
2019-05-16T08:33:06.248Z,97734.27
2019-05-16T08:35:45.716Z,97745.98
2019-05-16T08:38:21.433Z,97738.00
2019-05-16T08:41:07.990Z,97741.52
2019-05-16T08:43:31.540Z,97743.98
2019-05-16T08:46:12.253Z,97735.12
2019-05-16T08:48:53.325Z,97746.11
2019-05-16T08:51:23.788Z,97752.16
2019-05-16T08:54:01.245Z,97748.83
2019-05-16T08:56:32.785Z,97751.27
2019-05-16T08:59:13.244Z,97738.50
2019-05-16T09:01:52.103Z,97753.63
2019-05-16T09:04:24.460Z,97744.81
2019-05-16T09:06:56.504Z,97747.44
2019-05-16T09:09:44.208Z,97745.48
2019-05-16T09:12:17.264Z,97743.80
2019-05-16T09:14:52.299Z,97740.88
2019-05-16T09:17:27.840Z,97745.87
2019-05-16T09:20:01.595Z,97731.09
2019-05-16T09:22:37.744Z,97726.39
2019-05-16T09:25:11.964Z,97734.91
2019-05-16T09:27:47.283Z,97733.73
2019-05-16T09:30:21.839Z,97731.23
2019-05-16T09:32:58.615Z,97751.88
2019-05-16T09:35:36.975Z,97740.83
2019-05-16T09:38:10.701Z,97741.98
2019-05-16T09:40:47.793Z,97742.11
2019-05-16T09:43:22.186Z,97742.77
2019-05-16T09:46:03.490Z,97737.30
2019-05-16T09:48:34.126Z,97737.91
2019-05-16T09:51:09.536Z,97737.84
2019-05-16T09:53:42.838Z,97736.95
2019-05-16T09:56:36.998Z,97750.13
2019-05-16T09:59:12.399Z,97746.08
2019-05-16T10:01:47.916Z,97749.09
2019-05-16T10:04:22.307Z,97741.28
2019-05-16T10:06:57.304Z,97740.56
2019-05-16T10:09:41.976Z,97739.98
2019-05-16T10:12:14.995Z,97752.91
2019-05-16T10:14:42.844Z,97738.01
2019-05-16T10:17:18.695Z,97743.59
2019-05-16T10:19:52.257Z,97743.06
2019-05-16T10:22:27.267Z,97737.28
2019-05-16T10:25:01.276Z,97745.66
2019-05-16T10:27:36.774Z,97737.48
2019-05-16T10:30:12.521Z,97732.36
2019-05-16T10:32:48.350Z,97729.17
2019-05-16T10:35:29.361Z,97750.11
2019-05-16T10:37:59.449Z,97744.37
2019-05-16T10:40:36.898Z,97752.41
2019-05-16T10:43:11.699Z,97756.52
2019-05-16T10:45:46.389Z,97756.52
2019-05-16T10:48:29.587Z,97762.69
2019-05-16T10:51:28.904Z,97761.30
2019-05-16T10:54:13.021Z,97760.38
2019-05-16T10:56:40.517Z,97763.69
2019-05-16T10:59:53.320Z,97764.16
2019-05-16T11:01:49.779Z,97763.83
2019-05-16T11:04:42.241Z,97767.75
2019-05-16T11:07:05.766Z,97760.23
2019-05-16T11:09:58.356Z,97767.45
2019-05-16T11:12:44.677Z,97767.11
2019-05-16T11:14:58.883Z,97768.50
2019-05-16T11:17:33.983Z,97773.61
2019-05-16T11:20:11.004Z,97780.14
2019-05-16T11:22:47.688Z,97778.42
2019-05-16T11:25:28.791Z,97778.42
2019-05-16T11:28:00.586Z,97788.55
2019-05-16T11:30:37.304Z,97784.20
2019-05-16T11:33:10.270Z,97791.59
2019-05-16T11:35:47.605Z,97795.81
2019-05-16T11:38:21.237Z,97797.58
2019-05-16T11:40:56.867Z,97806.00
2019-05-16T11:43:30.819Z,97807.56
2019-05-16T11:46:24.012Z,97796.44
2019-05-16T11:48:59.324Z,97806.79
2019-05-16T11:51:34.558Z,97818.36
2019-05-16T11:54:08.140Z,97807.64
2019-05-16T11:56:41.812Z,97819.38
2019-05-16T11:59:17.122Z,97818.63
2019-05-16T12:01:50.823Z,97818.45
2019-05-16T12:04:24.488Z,97818.88
2019-05-16T12:07:00.671Z,97821.29
2019-05-16T12:09:43.499Z,97823.25
2019-05-16T12:12:11.318Z,97811.33
2019-05-16T12:14:49.258Z,97810.12
2019-05-16T12:17:24.477Z,97815.71
2019-05-16T12:19:59.695Z,97802.56
2019-05-16T12:22:33.640Z,97800.99
2019-05-16T12:25:08.413Z,97814.30
2019-05-16T12:27:42.677Z,97795.63
2019-05-16T12:30:17.681Z,97796.42
2019-05-16T12:32:51.561Z,97810.74
2019-05-16T12:35:27.524Z,97807.15
2019-05-16T12:38:00.312Z,97793.23
2019-05-16T12:40:34.312Z,97816.29
2019-05-16T12:43:08.316Z,97808.73
2019-05-16T12:45:42.373Z,97813.90
2019-05-16T12:48:20.314Z,97809.72
2019-05-16T12:50:52.019Z,97811.71
2019-05-16T12:53:31.664Z,97813.70
2019-05-16T12:56:02.564Z,97807.16
2019-05-16T12:58:42.037Z,97804.77
2019-05-16T13:01:16.328Z,97811.33
2019-05-16T13:03:48.343Z,97809.14
2019-05-16T13:06:22.009Z,97809.34
2019-05-16T13:08:57.351Z,97797.59
2019-05-16T13:11:31.002Z,97794.22
2019-05-16T13:14:11.081Z,97797.39
2019-05-16T13:16:42.142Z,97790.23
2019-05-16T13:19:18.130Z,97770.52
2019-05-16T13:21:53.488Z,97774.91
2019-05-16T13:24:27.940Z,97759.05
2019-05-16T13:27:03.813Z,97756.81
2019-05-16T13:29:37.722Z,97758.20
2019-05-16T13:32:11.707Z,97746.51
2019-05-16T13:34:45.357Z,97748.69
2019-05-16T13:37:20.758Z,97743.50
2019-05-16T13:39:56.806Z,97736.16
2019-05-16T13:42:30.553Z,97736.16
2019-05-16T13:45:06.784Z,97737.75
2019-05-16T13:47:40.330Z,97745.05
2019-05-16T13:50:16.839Z,97738.13
2019-05-16T13:52:50.712Z,97724.22
2019-05-16T13:55:27.086Z,97737.91
2019-05-16T13:58:04.625Z,97729.37
2019-05-16T14:00:39.012Z,97735.52
2019-05-16T14:03:17.718Z,97736.13
2019-05-16T14:05:49.481Z,97727.22
2019-05-16T14:08:26.733Z,97737.31
2019-05-16T14:11:01.428Z,97738.29
2019-05-16T14:13:34.304Z,97726.79
2019-05-16T14:16:10.670Z,97724.81
2019-05-16T14:18:46.870Z,97739.09
2019-05-16T14:21:20.904Z,97733.52
2019-05-16T14:24:00.461Z,97726.38
2019-05-16T14:26:37.016Z,97725.97
2019-05-16T14:29:12.778Z,97725.39
2019-05-16T14:31:48.587Z,97727.32
2019-05-16T14:34:22.451Z,97718.42
2019-05-16T14:36:57.872Z,97724.95
2019-05-16T14:39:30.965Z,97726.55
2019-05-16T14:42:06.691Z,97718.02
2019-05-16T14:44:59.848Z,97730.73
2019-05-16T14:47:17.737Z,97748.56
2019-05-16T14:49:51.485Z,97744.39
2019-05-16T14:52:27.166Z,97749.33
2019-05-16T14:55:02.436Z,97747.73
2019-05-16T14:57:36.884Z,97743.80
2019-05-16T15:00:13.596Z,97744.19
2019-05-16T15:02:48.100Z,97749.89
2019-05-16T15:05:23.637Z,97738.22
2019-05-16T15:07:58.770Z,97758.43
2019-05-16T15:10:34.072Z,97764.19
2019-05-16T15:13:08.143Z,97778.08
2019-05-16T15:15:42.979Z,97766.97
2019-05-16T15:18:17.786Z,97774.71
2019-05-16T15:20:53.430Z,97775.83
2019-05-16T15:23:28.805Z,97782.94
2019-05-16T15:26:09.055Z,97774.84
2019-05-16T15:28:41.058Z,97784.39
2019-05-16T15:31:16.703Z,97784.12
2019-05-16T15:33:52.123Z,97786.69
2019-05-16T15:36:27.583Z,97783.77
2019-05-16T15:39:01.892Z,97789.53
2019-05-16T15:41:36.669Z,97786.89
2019-05-16T15:44:12.157Z,97785.27
2019-05-16T15:46:47.868Z,97780.30
2019-05-16T15:49:23.590Z,97781.69
2019-05-16T15:51:57.519Z,97787.86
2019-05-16T15:54:32.960Z,97785.09
2019-05-16T15:57:06.924Z,97783.53
2019-05-16T15:59:40.606Z,97784.46
2019-05-16T16:02:14.249Z,97776.37
2019-05-16T16:04:51.432Z,97776.55
2019-05-16T16:07:27.002Z,97768.64
2019-05-16T16:10:01.763Z,97781.80
2019-05-16T16:12:37.618Z,97783.63
2019-05-16T16:15:13.247Z,97782.87
2019-05-16T16:17:47.316Z,97762.21
2019-05-16T16:20:22.526Z,97805.29
2019-05-16T16:22:57.278Z,97806.27
2019-05-16T16:25:32.606Z,97798.34
2019-05-16T16:28:27.818Z,97785.26
2019-05-16T16:31:03.029Z,97799.73
2019-05-16T16:33:38.156Z,97796.55
2019-05-16T16:36:12.943Z,97799.35
2019-05-16T16:38:48.507Z,97800.74
2019-05-16T16:41:23.583Z,97803.72
2019-05-16T16:43:58.836Z,97807.69
2019-05-16T16:46:34.206Z,97813.03
2019-05-16T16:49:10.037Z,97824.73
2019-05-16T16:51:47.775Z,97821.37
2019-05-16T16:54:21.980Z,97802.92
2019-05-16T16:56:55.756Z,97794.39
2019-05-16T16:59:29.443Z,97823.13
2019-05-16T17:02:04.872Z,97809.25
2019-05-16T17:04:39.156Z,97818.73
2019-05-16T17:07:12.971Z,97821.33
2019-05-16T17:09:47.966Z,97831.22
2019-05-16T17:12:22.294Z,97830.42
2019-05-16T17:14:57.330Z,97844.72
2019-05-16T17:17:31.131Z,97811.40
2019-05-16T17:20:07.597Z,97825.28
2019-05-16T17:22:43.455Z,97833.82
2019-05-16T17:25:18.910Z,97833.61
2019-05-16T17:27:54.201Z,97838.13
2019-05-16T17:30:29.627Z,97853.02
2019-05-16T17:33:04.596Z,97848.09
2019-05-16T17:35:38.993Z,97839.72
2019-05-16T17:38:14.300Z,97833.58
2019-05-16T17:40:49.648Z,97849.56
2019-05-16T17:43:27.005Z,97852.59
2019-05-16T17:46:00.958Z,97835.13
2019-05-16T17:48:37.698Z,97859.28
2019-05-16T17:51:11.573Z,97852.69
2019-05-16T17:53:45.602Z,97853.48
2019-05-16T17:56:22.701Z,97859.83
2019-05-16T17:58:58.431Z,97876.70
2019-05-16T18:01:32.353Z,97856.25
2019-05-16T18:04:07.966Z,97872.69
2019-05-16T18:06:42.908Z,97882.20
2019-05-16T18:09:18.305Z,97883.38
2019-05-16T18:11:53.168Z,97881.94
2019-05-16T18:14:27.848Z,97868.27
2019-05-16T18:17:02.233Z,97888.49
2019-05-16T18:19:37.267Z,97891.66
2019-05-16T18:22:10.948Z,97895.50
2019-05-16T18:24:47.399Z,97896.62
2019-05-16T18:27:21.079Z,97896.45
2019-05-16T18:29:55.423Z,97892.82
2019-05-16T18:32:30.801Z,97927.50
2019-05-16T18:35:07.088Z,97927.50
2019-05-16T18:37:41.240Z,97942.41
2019-05-16T18:40:16.741Z,97944.17
2019-05-16T18:42:50.307Z,97957.03
2019-05-16T18:45:27.807Z,97964.75
2019-05-16T18:48:03.643Z,97968.87
2019-05-16T18:50:38.621Z,97975.05
2019-05-16T18:53:12.466Z,97986.89
2019-05-16T18:55:47.624Z,97996.39
2019-05-16T18:58:22.455Z,97988.30
2019-05-16T19:00:56.663Z,98009.91
2019-05-16T19:03:30.506Z,98006.92
2019-05-16T19:06:07.786Z,98008.71
2019-05-16T19:08:42.484Z,98015.17
2019-05-16T19:11:17.832Z,98007.41
2019-05-16T19:13:52.804Z,98022.38
2019-05-16T19:16:26.522Z,98033.03
2019-05-16T19:19:01.864Z,98024.88
2019-05-16T19:21:36.831Z,98035.13
2019-05-16T19:24:12.162Z,98047.63
2019-05-16T19:26:48.070Z,98046.95
2019-05-16T19:29:23.352Z,98050.55
2019-05-16T19:31:57.206Z,98057.03
2019-05-16T19:34:33.381Z,98046.73
2019-05-16T19:37:08.360Z,98054.61
2019-05-16T19:39:43.718Z,98067.03
2019-05-16T19:42:19.759Z,98068.57
2019-05-16T19:44:53.285Z,98076.28
2019-05-16T19:47:35.039Z,98089.65
2019-05-16T19:50:02.367Z,98088.79
2019-05-16T19:52:36.901Z,98085.73
2019-05-16T19:55:12.427Z,98084.53
2019-05-16T19:57:48.055Z,98089.90
2019-05-16T20:00:22.553Z,98091.23
2019-05-16T20:02:57.757Z,98089.59
2019-05-16T20:05:32.031Z,98099.11
2019-05-16T20:08:06.587Z,98102.31
2019-05-16T20:10:42.544Z,98106.84
2019-05-16T20:13:17.918Z,98104.84
2019-05-16T20:15:51.524Z,98100.09
2019-05-16T20:18:27.153Z,98087.16
2019-05-16T20:21:00.609Z,98105.80
2019-05-16T20:23:36.833Z,98121.13
2019-05-16T20:26:09.471Z,98113.62
2019-05-16T20:28:43.232Z,98114.31
2019-05-16T20:31:17.229Z,98123.87
2019-05-16T20:33:50.867Z,98122.73
2019-05-16T20:36:26.619Z,98119.16
2019-05-16T20:39:00.198Z,98118.94
2019-05-16T20:41:34.077Z,98105.58
2019-05-16T20:44:07.845Z,98117.84
2019-05-16T20:46:42.918Z,98114.94
2019-05-16T20:49:18.276Z,98117.92
2019-05-16T20:51:52.065Z,98116.97
2019-05-16T20:54:27.537Z,98127.91
2019-05-16T20:57:02.092Z,98132.59
2019-05-16T20:59:35.737Z,98134.16
2019-05-16T21:02:09.450Z,98144.18
2019-05-16T21:04:43.083Z,98146.77
2019-05-16T21:07:17.241Z,98151.55
2019-05-16T21:09:51.194Z,98154.17
2019-05-16T21:12:26.573Z,98155.34
2019-05-16T21:14:59.965Z,98152.20
2019-05-16T21:17:35.442Z,98161.41
2019-05-16T21:20:09.416Z,98156.36
2019-05-16T21:22:43.846Z,98153.95
2019-05-16T21:25:18.922Z,98148.04
2019-05-16T21:27:53.923Z,98160.62
2019-05-16T21:30:27.660Z,98150.84
2019-05-16T21:33:01.472Z,98153.19
2019-05-16T21:35:36.539Z,98170.70
2019-05-16T21:38:11.609Z,98176.59
2019-05-16T21:40:47.401Z,98179.95
2019-05-16T21:43:21.681Z,98188.75
2019-05-16T21:45:56.695Z,98189.41
2019-05-16T21:48:32.110Z,98189.82
2019-05-16T21:51:07.693Z,98193.21
2019-05-16T21:53:42.050Z,98202.41
2019-05-16T21:56:17.619Z,98192.00
2019-05-16T21:58:52.831Z,98202.20
2019-05-16T22:01:29.197Z,98200.97
2019-05-16T22:04:07.189Z,98201.56
2019-05-16T22:06:41.123Z,98214.00
2019-05-16T22:09:16.386Z,98225.02
2019-05-16T22:11:49.911Z,98224.76
2019-05-16T22:14:27.745Z,98227.56
2019-05-16T22:17:02.827Z,98223.80
2019-05-16T22:19:36.585Z,98228.02
2019-05-16T22:22:11.596Z,98227.98
2019-05-16T22:24:49.215Z,98238.30
2019-05-16T22:27:21.966Z,98241.63
2019-05-16T22:29:56.735Z,98227.66
2019-05-16T22:32:31.241Z,98226.25
2019-05-16T22:35:07.896Z,98225.07
2019-05-16T22:37:52.191Z,98235.13
2019-05-16T22:40:20.489Z,98235.26
2019-05-16T22:42:54.681Z,98233.28
2019-05-16T22:45:28.941Z,98221.44
2019-05-16T22:48:03.132Z,98210.77
2019-05-16T22:50:38.705Z,98204.66
2019-05-16T22:53:14.021Z,98204.50
2019-05-16T22:55:47.825Z,98191.61
2019-05-16T22:58:23.304Z,98199.41
2019-05-16T23:00:57.398Z,98195.75
2019-05-16T23:03:31.325Z,98181.81
2019-05-16T23:06:07.646Z,98195.45
2019-05-16T23:08:41.395Z,98196.25
2019-05-16T23:11:16.555Z,98190.35
2019-05-16T23:13:51.700Z,98179.83
2019-05-16T23:16:26.666Z,98181.91
2019-05-16T23:19:01.712Z,98181.42
2019-05-16T23:21:37.182Z,98178.34
2019-05-16T23:24:11.091Z,98190.11
2019-05-16T23:26:46.837Z,98183.16
2019-05-16T23:29:19.736Z,98190.20
2019-05-16T23:31:56.428Z,98190.47
2019-05-16T23:34:29.623Z,98199.23
2019-05-16T23:37:06.473Z,98208.69
2019-05-16T23:39:41.665Z,98201.95
2019-05-16T23:42:15.437Z,98208.50
2019-05-16T23:44:50.081Z,98213.02
2019-05-16T23:47:23.674Z,98210.06
2019-05-16T23:49:57.703Z,98206.48
2019-05-16T23:52:33.164Z,98207.70
2019-05-16T23:55:09.639Z,98203.94
2019-05-16T23:57:46.614Z,98206.02
